Time;durP1;ratioP1;P1;durP2;ratioP2;P2;SDS_P1;SDS_P2;PMS_P1;PMS_P2;Temp;Humidity;BMP_temperature;BMP_pressure;BME280_temperature;BME280_humidity;BME280_pressure;Samples;Min_cycle;Max_cycle;Signal;HPM_P1;HPM_P2
2023/09/11 00:02:06;;;;;;;8.23;2.10;;;;;;;15.14;62.25;95186.13;5049879;28;20495;-73
2023/09/11 00:04:32;;;;;;;3.45;1.90;;;;;;;15.00;62.36;95175.31;5051123;28;20025;-73
2023/09/11 00:06:57;;;;;;;4.15;2.17;;;;;;;14.86;62.35;95160.94;5033446;28;20449;-73
2023/09/11 00:09:22;;;;;;;4.22;1.63;;;;;;;14.98;62.50;95157.97;5049816;28;20021;-73
2023/09/11 00:11:48;;;;;;;4.40;1.83;;;;;;;14.91;62.45;95177.03;5033481;28;20044;-73
2023/09/11 00:14:13;;;;;;;3.40;1.83;;;;;;;14.93;62.79;95194.22;5049786;28;20047;-73
2023/09/11 00:16:39;;;;;;;3.65;1.77;;;;;;;14.82;62.97;95196.16;5053417;28;20036;-74
2023/09/11 00:19:05;;;;;;;3.45;1.90;;;;;;;14.63;63.37;95184.84;5036459;28;20027;-73
2023/09/11 00:21:30;;;;;;;3.78;1.90;;;;;;;14.48;63.69;95160.06;5053219;28;20033;-74
2023/09/11 00:23:56;;;;;;;4.22;1.90;;;;;;;14.62;63.41;95182.34;5070881;28;20032;-73
2023/09/11 00:26:21;;;;;;;3.65;1.85;;;;;;;14.56;63.42;95168.06;5053143;28;20037;-73
2023/09/11 00:28:46;;;;;;;6.80;2.67;;;;;;;14.57;63.58;95172.34;5070902;28;20028;-74
2023/09/11 00:31:12;;;;;;;4.75;1.65;;;;;;;14.68;63.58;95179.16;5052783;28;20464;-73
2023/09/11 00:33:37;;;;;;;3.40;2.08;;;;;;;14.48;63.77;95160.06;5067641;28;20039;-73
2023/09/11 00:36:03;;;;;;;3.92;1.83;;;;;;;14.49;63.88;95178.25;5067729;28;20552;-73
2023/09/11 00:38:28;;;;;;;2.50;1.70;;;;;;;14.50;63.97;95173.84;5067777;28;20150;-73
2023/09/11 00:40:53;;;;;;;3.08;1.73;;;;;;;14.55;64.07;95174.25;5068993;28;20379;-73
2023/09/11 00:43:19;;;;;;;4.32;1.90;;;;;;;14.38;64.23;95172.38;5068207;28;20068;-74
2023/09/11 00:45:44;;;;;;;3.42;1.88;;;;;;;14.34;64.17;95158.72;5052655;28;20036;-73
2023/09/11 00:48:10;;;;;;;3.22;2.20;;;;;;;14.53;64.15;95173.56;5069465;28;20388;-74
2023/09/11 00:50:35;;;;;;;4.97;1.80;;;;;;;14.19;64.60;95168.81;5069323;28;20049;-73
2023/09/11 00:53:02;;;;;;;3.05;1.85;;;;;;;14.22;64.51;95159.88;5055666;28;20032;-74
2023/09/11 00:55:27;;;;;;;4.30;1.92;;;;;;;14.17;64.72;95162.06;5056778;28;20592;-74
2023/09/11 00:57:53;;;;;;;3.00;1.90;;;;;;;14.30;64.49;95168.66;5056850;28;20040;-74
2023/09/11 01:00:18;;;;;;;6.13;1.98;;;;;;;14.21;64.61;95159.06;5072499;28;20024;-73
2023/09/11 01:02:43;;;;;;;5.22;2.03;;;;;;;14.17;64.93;95162.91;5073633;28;20502;-73
2023/09/11 01:05:09;;;;;;;3.08;1.90;;;;;;;14.20;64.60;95151.34;5056613;28;20052;-73
2023/09/11 01:07:35;;;;;;;2.80;1.90;;;;;;;14.08;64.73;95154.13;5040121;28;20474;-74
2023/09/11 01:10:05;;;;;;;3.95;2.05;;;;;;;14.19;64.66;95157.53;5056664;28;20028;-74
2023/09/11 01:12:30;;;;;;;4.60;1.95;;;;;;;14.16;64.75;95160.44;5073506;28;20028;-74
2023/09/11 01:14:56;;;;;;;5.72;1.95;;;;;;;13.97;64.62;95135.16;5039752;28;20043;-73
2023/09/11 01:17:38;;;;;;;3.22;2.00;;;;;;;14.25;64.44;95162.19;5056495;28;20033;-73
2023/09/11 01:20:22;;;;;;;2.42;1.60;;;;;;;14.14;64.71;95162.38;5041821;28;20028;-74
2023/09/11 01:23:25;;;;;;;5.10;1.73;;;;;;;13.82;65.50;95166.13;5074202;28;20055;-74
2023/09/11 01:26:14;;;;;;;4.68;1.70;;;;;;;13.74;66.16;95166.81;5074116;28;20045;-73
2023/09/11 01:29:04;;;;;;;4.68;1.70;;;;;;;13.64;66.81;95161.56;5074136;28;20037;-73
2023/09/11 01:31:31;;;;;;;3.60;1.80;;;;;;;13.70;66.75;95160.19;5072816;28;20032;-73
2023/09/11 01:34:03;;;;;;;3.05;1.90;;;;;;;13.58;67.06;95161.31;5056185;28;20051;-73
2023/09/11 01:36:29;;;;;;;3.22;1.85;;;;;;;13.54;67.12;95155.53;5072738;28;20040;-74
2023/09/11 01:38:55;;;;;;;3.15;1.67;;;;;;;13.56;66.97;95150.16;5055772;28;20039;-73
2023/09/11 01:41:21;;;;;;;4.68;2.00;;;;;;;13.39;67.30;95139.44;5039410;28;20047;-73
2023/09/11 01:43:46;;;;;;;5.00;2.10;;;;;;;13.54;67.21;95146.84;5039276;28;20067;-73
2023/09/11 01:46:11;;;;;;;3.13;1.85;;;;;;;13.57;66.71;95138.78;5072486;28;20058;-73
2023/09/11 01:48:37;;;;;;;2.58;1.75;;;;;;;13.39;68.27;95157.69;5055876;28;20082;-73
2023/09/11 01:51:03;;;;;;;4.90;1.70;;;;;;;13.46;67.27;95151.97;5055848;28;20060;-73
2023/09/11 01:53:28;;;;;;;3.08;1.90;;;;;;;13.43;67.16;95155.66;5039080;28;20028;-74
2023/09/11 01:55:55;;;;;;;3.85;1.92;;;;;;;13.28;67.98;95139.56;5073684;28;20041;-73
2023/09/11 01:58:21;;;;;;;3.55;1.75;;;;;;;13.31;67.92;95149.72;5055976;28;20107;-74
2023/09/11 02:00:46;;;;;;;2.25;1.60;;;;;;;13.11;68.22;95151.47;5055552;28;20033;-73
2023/09/11 02:03:12;;;;;;;4.55;1.80;;;;;;;13.25;68.11;95159.88;5071775;28;20025;-73
2023/09/11 02:05:37;;;;;;;3.08;1.60;;;;;;;13.09;68.01;95124.72;5038829;28;20021;-73
2023/09/11 02:08:03;;;;;;;2.47;1.55;;;;;;;13.38;67.99;95150.03;5073438;28;20021;-73
2023/09/11 02:10:28;;;;;;;4.13;1.50;;;;;;;13.37;67.49;95149.22;5072034;28;20032;-73
2023/09/11 02:12:53;;;;;;;3.30;1.63;;;;;;;13.41;67.42;95142.75;5055375;28;20032;-74
2023/09/11 02:15:19;;;;;;;3.85;1.70;;;;;;;13.39;67.29;95134.22;5072213;28;20460;-73
2023/09/11 02:17:44;;;;;;;3.83;1.63;;;;;;;13.49;66.87;95133.41;5025847;28;20033;-73
2023/09/11 02:20:10;;;;;;;2.90;1.60;;;;;;;13.50;66.61;95122.00;5053229;28;20334;-73
2023/09/11 02:22:35;;;;;;;2.70;1.70;;;;;;;13.60;66.44;95134.09;5053124;28;20028;-73
2023/09/11 02:25:01;;;;;;;4.07;1.80;;;;;;;13.49;67.49;95133.41;5051783;28;20036;-73
2023/09/11 02:27:26;;;;;;;2.75;1.70;;;;;;;13.40;67.52;95133.28;5052016;28;20033;-73
2023/09/11 02:29:51;;;;;;;3.13;2.00;;;;;;;13.58;67.14;95129.97;5052924;28;20021;-73
2023/09/11 02:32:17;;;;;;;4.53;1.70;;;;;;;13.34;67.71;95131.19;5034899;28;20047;-74
2023/09/11 02:34:42;;;;;;;4.13;1.80;;;;;;;13.31;67.72;95134.06;5051816;28;20499;-74
2023/09/11 02:37:07;;;;;;;3.17;1.90;;;;;;;13.14;67.98;95127.72;5051668;28;20037;-73
2023/09/11 02:39:33;;;;;;;4.32;2.00;;;;;;;13.30;67.79;95121.19;5051404;28;20086;-74
2023/09/11 02:41:59;;;;;;;3.15;1.83;;;;;;;13.24;67.75;95111.28;5051602;28;20492;-73
2023/09/11 02:44:24;;;;;;;3.80;1.73;;;;;;;13.24;67.75;95135.56;5034683;28;20025;-73
2023/09/11 02:46:49;;;;;;;3.72;1.70;;;;;;;13.37;66.97;95130.94;5034627;28;20040;-74
2023/09/11 02:49:15;;;;;;;2.50;1.70;;;;;;;13.38;67.12;95126.53;5052388;28;20025;-73
2023/09/11 02:51:40;;;;;;;5.85;1.83;;;;;;;13.39;66.90;95131.63;5018400;28;20055;-74
2023/09/11 02:54:06;;;;;;;2.45;1.63;;;;;;;13.30;67.14;95122.00;5051285;28;20025;-73
2023/09/11 02:56:31;;;;;;;2.75;1.63;;;;;;;13.23;67.44;95127.84;5051371;28;20068;-73
2023/09/11 02:58:57;;;;;;;4.55;2.00;;;;;;;13.07;67.93;95131.00;5034795;28;20037;-74
2023/09/11 03:01:22;;;;;;;3.58;1.80;;;;;;;13.02;68.38;95120.16;5035193;28;20059;-73
2023/09/11 03:03:47;;;;;;;2.30;1.60;;;;;;;13.19;68.12;95122.91;5051452;28;20521;-74
2023/09/11 03:06:13;;;;;;;4.70;1.90;;;;;;;13.15;67.89;95128.56;5034791;28;20052;-73
2023/09/11 03:08:38;;;;;;;3.05;1.75;;;;;;;13.11;67.83;95112.34;5051426;28;20036;-73
2023/09/11 03:11:06;;;;;;;5.85;2.03;;;;;;;13.04;68.30;95124.28;5018007;28;20036;-73
2023/09/11 03:13:31;;;;;;;3.75;2.10;;;;;;;13.03;68.05;95125.22;5051218;28;20466;-73
2023/09/11 03:16:09;;;;;;;2.97;1.70;;;;;;;13.15;67.53;95118.13;5050357;28;20037;-74
2023/09/11 03:18:35;;;;;;;3.83;1.77;;;;;;;12.95;67.94;95118.09;5070827;28;20016;-73
2023/09/11 03:21:00;;;;;;;4.70;2.00;;;;;;;12.92;68.17;95122.72;5071195;28;20028;-74
2023/09/11 03:23:25;;;;;;;3.55;1.65;;;;;;;12.69;68.88;95122.94;5054213;28;20499;-74
2023/09/11 03:25:51;;;;;;;4.88;1.90;;;;;;;12.40;69.67;95102.00;5070996;28;20040;-73
2023/09/11 03:28:16;;;;;;;6.60;1.70;;;;;;;12.67;69.09;95117.03;5054301;28;20028;-74
2023/09/11 03:30:42;;;;;;;4.40;1.90;;;;;;;12.74;68.82;95125.16;5070892;28;20509;-74
2023/09/11 03:33:07;;;;;;;6.07;1.95;;;;;;;12.62;68.84;95114.00;5037499;28;20044;-74
2023/09/11 03:35:32;;;;;;;2.72;1.80;;;;;;;12.66;68.43;95109.34;5054227;28;20028;-74
2023/09/11 03:37:58;;;;;;;4.18;1.90;;;;;;;12.73;68.70;95123.50;5072152;28;20449;-74
2023/09/11 03:40:23;;;;;;;4.45;1.88;;;;;;;12.75;68.32;95122.41;5037409;28;20490;-74
2023/09/11 03:42:49;;;;;;;3.90;1.90;;;;;;;12.59;68.89;95123.84;5070527;28;20387;-74
2023/09/11 03:45:14;;;;;;;6.45;1.95;;;;;;;12.58;69.09;95122.22;5054073;28;20028;-74
2023/09/11 03:47:40;;;;;;;2.40;1.60;;;;;;;12.62;68.96;95128.81;5070883;28;20181;-74
2023/09/11 03:50:07;;;;;;;2.88;2.00;;;;;;;12.71;68.50;95130.63;5070414;28;20098;-74
2023/09/11 03:52:32;;;;;;;4.50;1.90;;;;;;;12.60;68.73;95122.91;5070600;28;20082;-74
2023/09/11 03:54:58;;;;;;;5.20;1.75;;;;;;;12.44;68.83;95126.00;5037359;28;20028;-74
2023/09/11 03:57:23;;;;;;;3.38;1.80;;;;;;;12.59;68.91;95126.47;5037328;28;20445;-74
2023/09/11 03:59:48;;;;;;;4.85;2.55;;;;;;;12.53;69.22;95122.59;5070450;28;20490;-74
2023/09/11 04:02:14;;;;;;;6.78;2.08;;;;;;;12.40;69.54;95119.41;5053692;28;20044;-74
2023/09/11 04:04:39;;;;;;;5.50;2.10;;;;;;;12.46;69.52;95127.53;5053810;28;20025;-74
2023/09/11 04:07:05;;;;;;;4.20;2.00;;;;;;;12.59;69.08;95131.69;5053842;28;20041;-74
2023/09/11 04:09:30;;;;;;;6.22;1.90;;;;;;;12.50;69.11;95128.09;5070174;28;20028;-74
2023/09/11 04:11:56;;;;;;;4.05;2.00;;;;;;;12.61;68.99;95129.78;5057914;28;20033;-74
2023/09/11 04:14:22;;;;;;;2.72;1.85;;;;;;;12.32;69.89;95137.47;5041945;28;20475;-74
2023/09/11 04:16:47;;;;;;;2.78;1.95;;;;;;;12.29;69.45;95113.34;5062996;28;20426;-74
2023/09/11 04:19:12;;;;;;;4.55;2.13;;;;;;;12.42;69.59;95136.53;5049684;28;20035;-74
2023/09/11 04:21:38;;;;;;;4.35;2.00;;;;;;;12.50;69.72;95134.13;5052265;28;20039;-74
2023/09/11 04:24:04;;;;;;;5.65;2.13;;;;;;;12.36;69.94;95141.47;5035583;28;20029;-74
2023/09/11 04:26:29;;;;;;;3.83;2.00;;;;;;;12.43;69.76;95147.81;5049429;28;20035;-74
2023/09/11 04:28:55;;;;;;;3.97;2.05;;;;;;;12.45;69.84;95141.53;5049634;28;20022;-74
2023/09/11 04:31:20;;;;;;;3.58;2.10;;;;;;;12.43;69.84;95142.59;5032745;28;20437;-74
2023/09/11 04:33:46;;;;;;;4.47;1.92;;;;;;;12.39;70.14;95152.44;5033699;28;20513;-74
2023/09/11 04:36:11;;;;;;;4.13;2.13;;;;;;;12.40;70.01;95141.09;5065087;28;20036;-74
2023/09/11 04:38:37;;;;;;;2.83;1.80;;;;;;;12.42;70.06;95141.75;5058287;28;20054;-74
2023/09/11 04:41:02;;;;;;;6.28;1.95;;;;;;;12.44;69.83;95137.25;5048667;28;20033;-74
2023/09/11 04:43:28;;;;;;;3.97;1.90;;;;;;;12.29;70.16;95139.38;5031206;28;20489;-74
2023/09/11 04:45:53;;;;;;;2.88;2.03;;;;;;;12.37;70.08;95146.56;5049727;28;20026;-74
2023/09/11 04:48:18;;;;;;;3.47;2.08;;;;;;;12.30;70.62;95145.41;5049318;28;20029;-74
2023/09/11 04:50:44;;;;;;;4.90;2.05;;;;;;;12.30;70.57;95154.03;5058360;28;20049;-74
2023/09/11 04:53:09;;;;;;;2.88;1.80;;;;;;;12.42;69.91;95152.19;5050250;28;20033;-74
2023/09/11 04:55:34;;;;;;;5.00;2.40;;;;;;;12.23;70.95;95146.88;5029479;28;20174;-74
2023/09/11 04:58:00;;;;;;;4.65;2.47;;;;;;;12.72;69.63;95137.50;5048770;28;20457;-74
2023/09/11 05:00:26;;;;;;;5.55;1.95;;;;;;;13.75;66.72;95151.97;5052518;28;20051;-74
2023/09/11 05:02:51;;;;;;;5.30;2.13;;;;;;;14.65;63.45;95151.50;5033065;28;20028;-74
2023/09/11 05:05:17;;;;;;;2.75;1.70;;;;;;;15.59;60.16;95146.00;5064815;28;20135;-74
2023/09/11 05:07:42;;;;;;;3.35;1.90;;;;;;;16.45;57.88;95149.81;5047183;28;20418;-74
2023/09/11 05:10:08;;;;;;;3.72;1.92;;;;;;;17.17;55.43;95138.03;5033551;28;20095;-74
2023/09/11 05:12:34;;;;;;;3.88;1.98;;;;;;;17.90;53.61;95148.84;5057351;28;20033;-74
2023/09/11 05:14:59;;;;;;;2.97;1.73;;;;;;;18.29;52.40;95141.09;5069891;28;20568;-74
2023/09/11 05:17:25;;;;;;;3.10;1.80;;;;;;;18.85;51.23;95138.53;5062584;28;20048;-74
2023/09/11 05:19:51;;;;;;;4.95;1.85;;;;;;;19.40;49.14;95129.72;5016695;28;20121;-74
2023/09/11 05:22:16;;;;;;;3.35;1.52;;;;;;;19.75;48.71;95130.19;5056834;28;20047;-74
2023/09/11 05:24:42;;;;;;;3.85;2.08;;;;;;;19.58;48.79;95135.53;5043722;28;20081;-77
2023/09/11 05:27:07;;;;;;;4.03;1.60;;;;;;;19.29;49.70;95138.03;5051210;28;20407;-74
2023/09/11 05:29:32;;;;;;;3.33;1.75;;;;;;;18.96;50.47;95135.53;5048711;28;20040;-76
2023/09/11 05:31:58;;;;;;;3.80;1.70;;;;;;;18.75;51.05;95133.50;5059460;28;20040;-76
2023/09/11 05:34:23;;;;;;;4.07;2.13;;;;;;;18.50;51.70;95127.44;5063333;28;20028;-77
2023/09/11 05:36:49;;;;;;;4.45;1.80;;;;;;;18.29;52.53;95128.78;5061849;28;20521;-75
2023/09/11 05:39:14;;;;;;;5.13;1.50;;;;;;;18.00;53.18;95128.50;5068435;28;20387;-75
2023/09/11 05:41:40;;;;;;;3.17;1.50;;;;;;;17.89;54.15;95118.31;5063543;28;20025;-75
2023/09/11 05:44:05;;;;;;;2.60;1.83;;;;;;;17.73;54.94;95133.03;5034629;28;20070;-76
2023/09/11 05:46:30;;;;;;;4.20;1.67;;;;;;;17.74;53.95;95134.69;5061974;28;20098;-76
2023/09/11 05:48:56;;;;;;;3.97;1.88;;;;;;;17.77;54.73;95131.72;5073669;28;20024;-78
2023/09/11 05:51:21;;;;;;;4.13;1.85;;;;;;;17.66;54.88;95116.28;5048054;28;20084;-74
2023/09/11 05:53:47;;;;;;;3.55;1.77;;;;;;;17.63;55.77;95129.75;5060815;28;20036;-77
2023/09/11 05:56:12;;;;;;;7.30;2.28;;;;;;;17.98;53.85;95130.47;5046368;28;20422;-77
2023/09/11 05:58:37;;;;;;;4.55;2.30;;;;;;;17.55;54.33;95121.84;5059069;28;20017;-74
2023/09/11 06:01:03;;;;;;;3.55;2.00;;;;;;;17.28;54.61;95125.59;5067450;28;20033;-73
2023/09/11 06:03:30;;;;;;;4.15;2.08;;;;;;;17.00;54.86;95114.53;5051070;28;20078;-74
2023/09/11 06:05:55;;;;;;;3.45;1.92;;;;;;;17.04;55.75;95105.34;5055764;28;20060;-75
2023/09/11 06:08:20;;;;;;;5.03;1.90;;;;;;;17.47;55.04;95133.19;5066673;28;20100;-76
2023/09/11 06:10:46;;;;;;;3.65;1.90;;;;;;;17.40;54.60;95106.72;5050451;28;20044;-76
2023/09/11 06:13:11;;;;;;;9.98;3.47;;;;;;;17.73;54.32;95135.69;5035375;28;20070;-75
2023/09/11 06:15:37;;;;;;;3.83;2.30;;;;;;;17.45;54.16;95144.84;5034469;28;20033;-75
2023/09/11 06:18:03;;;;;;;10.13;2.20;;;;;;;17.82;53.90;95137.34;5067666;28;20103;-76
2023/09/11 06:20:29;;;;;;;4.65;1.90;;;;;;;17.46;53.23;95105.25;5069507;28;20593;-75
2023/09/11 06:22:55;;;;;;;4.78;1.90;;;;;;;17.51;54.01;95146.81;5070274;28;20040;-74
2023/09/11 06:25:21;;;;;;;5.80;2.28;;;;;;;17.78;54.18;95135.19;5038314;28;20078;-75
2023/09/11 06:27:46;;;;;;;6.25;2.22;;;;;;;17.72;54.46;95147.19;5053868;28;20036;-75
2023/09/11 06:30:12;;;;;;;7.63;2.40;;;;;;;17.61;54.71;95139.63;5071613;28;20037;-76
2023/09/11 06:32:37;;;;;;;4.70;2.17;;;;;;;17.89;54.20;95147.22;5054082;28;20112;-76
2023/09/11 06:35:06;;;;;;;3.38;2.28;;;;;;;17.85;54.43;95149.34;5035999;28;20086;-76
2023/09/11 06:37:31;;;;;;;4.43;2.05;;;;;;;18.12;53.57;95150.81;5053330;28;20125;-76
2023/09/11 06:39:57;;;;;;;4.88;1.98;;;;;;;18.46;53.26;95147.97;5068731;28;20037;-76
2023/09/11 06:42:23;;;;;;;6.07;2.40;;;;;;;18.24;53.02;95143.41;5069433;28;20028;-76
2023/09/11 06:44:53;;;;;;;8.77;2.50;;;;;;;18.04;53.23;95143.75;5052594;28;20410;-76
2023/09/11 06:47:18;;;;;;;7.18;1.98;;;;;;;18.06;53.74;95138.34;5069882;28;20506;-75
2023/09/11 06:49:44;;;;;;;5.70;2.20;;;;;;;18.21;53.90;95149.81;5071354;28;20059;-76
2023/09/11 06:52:09;;;;;;;4.45;2.60;;;;;;;18.19;53.34;95150.97;5054798;28;20032;-76
2023/09/11 06:54:35;;;;;;;8.90;3.28;;;;;;;18.18;53.63;95150.16;5071261;28;20403;-75
2023/09/11 06:57:00;;;;;;;5.00;2.53;;;;;;;18.80;52.34;95157.47;5054612;28;20102;-76
2023/09/11 06:59:26;;;;;;;5.05;2.80;;;;;;;18.77;51.40;95135.94;5037871;28;20060;-76
2023/09/11 07:01:51;;;;;;;9.30;5.30;;;;;;;18.75;51.98;95138.75;5072294;28;20036;-76
2023/09/11 07:04:17;;;;;;;6.93;3.78;;;;;;;18.75;51.96;95154.53;5071094;28;20037;-76
2023/09/11 07:06:42;;;;;;;6.72;2.92;;;;;;;18.59;52.40;95138.75;5071065;28;20495;-75
2023/09/11 07:09:08;;;;;;;5.22;3.08;;;;;;;19.01;51.96;95149.00;5054386;28;20029;-76
2023/09/11 07:11:33;;;;;;;6.55;3.40;;;;;;;19.09;50.95;95146.34;5072381;28;20036;-75
2023/09/11 07:13:59;;;;;;;6.47;3.00;;;;;;;19.23;50.23;95138.72;5070855;28;20119;-77
2023/09/11 07:16:24;;;;;;;4.25;2.70;;;;;;;19.18;50.11;95141.84;5070761;28;20063;-76
2023/09/11 07:18:50;;;;;;;7.60;2.53;;;;;;;19.73;49.06;95138.28;5054183;28;20029;-77
2023/09/11 07:21:16;;;;;;;4.88;2.10;;;;;;;20.07;47.44;95137.03;5070788;28;20039;-77
2023/09/11 07:23:41;;;;;;;4.32;2.20;;;;;;;20.13;48.35;95127.59;5070763;28;20410;-77
2023/09/11 07:26:07;;;;;;;5.82;2.33;;;;;;;19.88;47.84;95135.69;5053982;28;20059;-75
2023/09/11 07:28:34;;;;;;;6.45;2.63;;;;;;;20.03;47.06;95122.53;5054032;28;20329;-76
2023/09/11 07:30:59;;;;;;;9.07;2.55;;;;;;;20.01;47.25;95120.09;5071695;28;20060;-76
2023/09/11 07:33:25;;;;;;;5.10;2.22;;;;;;;20.01;47.49;95128.00;5053991;28;20157;-76
2023/09/11 07:35:50;;;;;;;5.07;2.30;;;;;;;20.29;46.62;95125.63;5053629;28;20508;-76
2023/09/11 07:38:16;;;;;;;7.32;2.40;;;;;;;20.34;46.71;95125.09;5070389;28;20037;-76
2023/09/11 07:40:41;;;;;;;4.38;1.65;;;;;;;20.90;44.30;95114.94;5037073;28;20033;-76
2023/09/11 07:43:08;;;;;;;5.78;2.45;;;;;;;20.88;44.78;95127.50;5053707;28;20036;-75
2023/09/11 07:45:34;;;;;;;5.75;2.30;;;;;;;21.11;44.44;95116.81;5071468;28;20024;-76
2023/09/11 07:47:59;;;;;;;4.78;2.13;;;;;;;21.13;44.37;95114.81;5053467;28;20571;-76
2023/09/11 07:50:25;;;;;;;2.60;1.88;;;;;;;21.17;44.55;95120.53;5070070;28;20040;-76
2023/09/11 07:52:51;;;;;;;6.88;2.30;;;;;;;21.06;45.38;95108.66;5070092;28;20025;-75
2023/09/11 07:55:16;;;;;;;4.95;2.33;;;;;;;21.04;44.82;95120.41;5053594;28;20544;-76
2023/09/11 07:57:42;;;;;;;4.82;2.10;;;;;;;21.58;43.46;95110.28;5071805;28;20060;-76
2023/09/11 08:00:08;;;;;;;2.88;1.83;;;;;;;21.56;43.69;95108.81;5071006;28;20452;-76
2023/09/11 08:02:36;;;;;;;6.80;2.22;;;;;;;21.44;43.67;95105.84;5053629;28;20045;-76
2023/09/11 08:05:01;;;;;;;4.70;1.83;;;;;;;21.58;42.96;95109.44;5053510;28;20452;-76
2023/09/11 08:07:26;;;;;;;9.20;2.20;;;;;;;21.96;42.68;95106.56;5036742;28;20047;-76
2023/09/11 08:09:52;;;;;;;5.22;2.30;;;;;;;22.19;41.89;95103.72;5071105;28;20028;-76
2023/09/11 08:12:18;;;;;;;6.10;2.33;;;;;;;22.17;41.42;95106.53;5070064;28;20044;-76
2023/09/11 08:14:44;;;;;;;3.92;2.08;;;;;;;22.12;40.99;95098.38;5069832;28;20025;-76
2023/09/11 08:17:10;;;;;;;4.93;2.10;;;;;;;21.93;39.67;95099.84;5069940;28;20124;-76
2023/09/11 08:19:35;;;;;;;4.18;2.20;;;;;;;21.94;41.22;95105.94;5069642;28;20108;-76
2023/09/11 08:22:02;;;;;;;4.93;2.30;;;;;;;21.94;40.00;95090.06;5069971;28;20043;-76
2023/09/11 08:24:28;;;;;;;5.45;2.35;;;;;;;21.99;39.29;95103.53;5069794;28;20082;-76
2023/09/11 08:26:53;;;;;;;8.20;3.05;;;;;;;21.98;39.15;95091.31;5069965;28;20398;-76
2023/09/11 08:29:19;;;;;;;7.88;2.40;;;;;;;22.02;39.93;95098.69;5069754;28;20033;-76
2023/09/11 08:31:44;;;;;;;7.20;2.33;;;;;;;22.04;40.32;95101.16;5069838;28;20028;-76
2023/09/11 08:34:10;;;;;;;4.80;2.30;;;;;;;22.24;40.04;95101.34;5053137;28;20506;-76
2023/09/11 08:36:35;;;;;;;4.35;2.30;;;;;;;22.52;40.03;95083.59;5036302;28;20483;-76
2023/09/11 08:39:00;;;;;;;4.10;2.25;;;;;;;22.93;38.25;95084.66;5070775;28;20479;-76
2023/09/11 08:41:26;;;;;;;7.10;2.60;;;;;;;23.17;38.50;95089.44;5070988;28;20418;-76
2023/09/11 08:43:51;;;;;;;9.00;2.40;;;;;;;23.00;38.79;95090.81;5069498;28;20024;-76
2023/09/11 08:46:18;;;;;;;4.32;2.13;;;;;;;23.01;38.28;95075.72;5052963;28;20032;-77
2023/09/11 08:48:47;;;;;;;5.07;2.35;;;;;;;22.86;38.14;95058.13;5036299;28;20029;-76
2023/09/11 08:51:22;;;;;;;3.97;2.15;;;;;;;23.21;38.46;95087.25;5053356;28;20122;-77
2023/09/11 08:53:48;;;;;;;10.07;2.97;;;;;;;22.84;38.07;95083.97;5052896;28;20132;-77
2023/09/11 08:56:14;;;;;;;9.82;2.78;;;;;;;23.02;38.31;95080.03;5069352;28;20052;-76
2023/09/11 08:58:39;;;;;;;4.68;2.22;;;;;;;22.99;38.22;95077.78;5052706;28;20039;-76
2023/09/11 09:01:04;;;;;;;8.10;2.38;;;;;;;23.11;38.27;95073.53;5036021;28;20029;-75
2023/09/11 09:03:30;;;;;;;8.68;3.05;;;;;;;23.07;38.33;95067.81;5052764;28;20486;-75
2023/09/11 09:05:56;;;;;;;4.35;2.10;;;;;;;23.29;38.35;95078.28;5052659;28;20040;-75
2023/09/11 09:08:21;;;;;;;7.43;2.50;;;;;;;23.26;37.48;95063.59;5052671;28;20098;-75
2023/09/11 09:10:48;;;;;;;3.72;2.40;;;;;;;23.28;37.47;95071.34;5052408;28;20475;-76
2023/09/11 09:13:13;;;;;;;3.80;2.20;;;;;;;23.14;37.38;95047.44;5070505;28;20032;-76
2023/09/11 09:15:44;;;;;;;4.80;2.35;;;;;;;23.27;37.06;95056.47;5056536;28;20413;-75
2023/09/11 09:18:10;;;;;;;6.25;2.60;;;;;;;23.17;36.98;95060.31;5057330;28;20039;-76
2023/09/11 09:20:35;;;;;;;5.63;2.60;;;;;;;23.48;36.13;95066.91;5039698;28;20387;-76
2023/09/11 09:23:01;;;;;;;4.22;2.50;;;;;;;23.26;36.48;95047.69;5056344;28;20505;-76
2023/09/11 09:25:27;;;;;;;5.25;2.53;;;;;;;22.97;37.54;95046.19;5056260;28;20035;-75
2023/09/11 09:27:53;;;;;;;7.05;2.67;;;;;;;23.34;37.31;95049.34;5056418;28;20474;-75
2023/09/11 09:30:19;;;;;;;6.00;2.38;;;;;;;23.28;36.96;95036.91;5056237;28;20090;-76
2023/09/11 09:32:46;;;;;;;6.10;2.25;;;;;;;23.48;37.38;95039.59;5072698;28;20025;-76
2023/09/11 09:35:13;;;;;;;4.45;2.30;;;;;;;23.60;36.49;95041.44;5056199;28;20025;-75
2023/09/11 09:37:38;;;;;;;4.88;2.50;;;;;;;23.84;35.38;95040.06;5056500;28;20089;-75
2023/09/11 09:40:04;;;;;;;6.22;2.78;;;;;;;23.79;34.82;95047.00;5039249;28;20021;-75
2023/09/11 09:42:41;;;;;;;8.35;2.30;;;;;;;23.63;35.62;95032.28;5072796;28;20059;-75
2023/09/11 09:45:07;;;;;;;3.00;2.30;;;;;;;23.52;36.28;95031.03;5056367;28;20032;-76
2023/09/11 09:47:33;;;;;;;5.50;2.50;;;;;;;23.57;35.80;95035.75;5073756;28;20028;-76
2023/09/11 09:50:00;;;;;;;4.50;2.30;;;;;;;23.80;35.52;95027.44;5039007;28;20395;-75
2023/09/11 09:52:29;;;;;;;4.47;2.30;;;;;;;24.16;35.15;95027.00;5039378;28;20585;-75
2023/09/11 09:54:59;;;;;;;3.65;2.20;;;;;;;23.51;34.58;95028.56;5056148;28;20024;-75
2023/09/11 09:57:25;;;;;;;3.90;2.60;;;;;;;23.61;34.16;95023.69;5056301;28;20093;-76
2023/09/11 09:59:56;;;;;;;3.83;2.25;;;;;;;23.60;34.87;95025.53;5055727;28;20486;-76
2023/09/11 10:02:24;;;;;;;;;;;;;;;23.58;35.11;95018.81;5039910;28;20116;-76
2023/09/11 10:04:57;;;;;;;5.65;2.47;;;;;;;23.61;35.62;95003.31;5073402;28;19917;-76
2023/09/11 10:07:38;;;;;;;4.57;2.42;;;;;;;23.76;34.86;95019.03;5055895;28;20033;-76
2023/09/11 10:10:27;;;;;;;4.88;2.20;;;;;;;23.53;33.77;95005.34;5071945;28;20028;-76
2023/09/11 10:13:05;;;;;;;4.72;2.38;;;;;;;23.62;33.40;95007.59;5061841;28;20531;-75
2023/09/11 10:15:32;;;;;;;5.95;2.78;;;;;;;23.60;34.63;94984.97;5073184;28;20021;-75
2023/09/11 10:17:57;;;;;;;3.85;1.95;;;;;;;23.87;33.29;94996.38;5038651;28;20081;-76
2023/09/11 10:20:23;;;;;;;6.43;2.50;;;;;;;23.73;34.60;95005.38;5055258;28;20025;-75
2023/09/11 10:22:52;;;;;;;5.45;2.35;;;;;;;23.76;34.45;94978.44;5055287;28;20024;-76
2023/09/11 10:25:18;;;;;;;5.63;2.33;;;;;;;24.05;32.95;94990.47;5055108;28;20050;-75
2023/09/11 10:27:43;;;;;;;4.97;2.08;;;;;;;23.92;33.99;94978.03;5055233;28;20486;-74
2023/09/11 10:30:09;;;;;;;4.75;2.30;;;;;;;23.90;33.15;94982.72;5055104;28;20033;-76
2023/09/11 10:32:42;;;;;;;12.55;2.88;;;;;;;24.01;33.66;94986.59;5055326;28;20109;-76
2023/09/11 10:35:07;;;;;;;7.25;2.40;;;;;;;24.26;32.78;94976.13;5055628;28;20032;-75
2023/09/11 10:37:33;;;;;;;7.78;2.50;;;;;;;24.27;33.17;94975.13;5038418;28;20110;-76
2023/09/11 10:39:58;;;;;;;3.40;2.10;;;;;;;24.30;33.67;94972.06;5071538;28;20024;-76
2023/09/11 10:42:24;;;;;;;5.00;2.03;;;;;;;24.01;34.03;94944.94;5038400;28;20040;-75
2023/09/11 10:44:52;;;;;;;6.85;2.40;;;;;;;24.30;33.06;94961.44;5071443;28;20095;-75
2023/09/11 10:47:18;;;;;;;5.88;2.28;;;;;;;24.29;34.34;94957.13;5054964;28;20399;-75
2023/09/11 10:49:43;;;;;;;4.25;2.15;;;;;;;24.23;33.59;94958.78;5037796;28;20056;-76
2023/09/11 10:52:09;;;;;;;8.98;2.47;;;;;;;24.15;32.38;94955.53;5072914;28;20032;-76
2023/09/11 10:54:35;;;;;;;6.25;1.88;;;;;;;24.36;31.10;94944.66;5037899;28;20025;-75
2023/09/11 10:57:00;;;;;;;3.15;2.05;;;;;;;24.26;32.71;94960.22;5038128;28;20040;-76
2023/09/11 10:59:26;;;;;;;3.75;2.00;;;;;;;24.19;32.39;94954.94;5071214;28;20047;-76
2023/09/11 11:01:52;;;;;;;2.85;1.85;;;;;;;24.27;32.39;94944.09;5054725;28;20409;-75
2023/09/11 11:04:17;;;;;;;4.85;2.35;;;;;;;24.24;32.08;94954.31;5037813;28;20039;-76
2023/09/11 11:06:45;;;;;;;4.32;2.22;;;;;;;24.22;32.60;94948.41;5071183;28;20036;-76
2023/09/11 11:09:23;;;;;;;3.58;2.00;;;;;;;24.20;32.70;94942.47;5054479;28;20085;-76
2023/09/11 11:11:49;;;;;;;4.63;2.17;;;;;;;24.38;32.10;94937.31;5070951;28;20032;-75
2023/09/11 11:14:18;;;;;;;4.88;2.20;;;;;;;24.31;32.13;94941.81;5037686;28;20486;-76
2023/09/11 11:16:59;;;;;;;4.93;2.35;;;;;;;24.36;32.50;94939.38;5072235;28;20036;-76
2023/09/11 11:19:30;;;;;;;4.68;2.00;;;;;;;24.42;32.42;94938.53;5054392;28;20024;-76
2023/09/11 11:21:55;;;;;;;7.78;2.30;;;;;;;24.58;31.73;94941.78;5070939;28;20040;-76
2023/09/11 11:24:23;;;;;;;4.55;2.10;;;;;;;24.61;32.14;94941.34;5037352;28;20032;-76
2023/09/11 11:26:48;;;;;;;4.30;1.75;;;;;;;24.87;29.62;94927.13;5054324;28;20101;-75
2023/09/11 11:29:16;;;;;;;3.08;1.90;;;;;;;24.66;30.54;94930.91;5070509;28;20024;-76
2023/09/11 11:31:41;;;;;;;4.03;2.00;;;;;;;24.65;31.06;94918.66;5054341;28;20043;-75